Airfield :
LOGIN :

Register | Disclaimer

   EN    FR    IT 

 










Legend :    VFR   Marginal VFR   IFR   Intensive IFR   Very Intensive IFR
Visi :
Ceiling :
>= 8 km
>= 3000ft
5 to 8 km
1000 to 3000 ft
1500m to 5 km
500 to 1000 ft
800 to 1500m
200 to 500 ft
< 800m
< 200 ft
Symbols :   Thunderstorms  Fog  Heavy snow  Heavy precipitations  Wind > 20 kt
SIGMETs :     Misc.  Thunderstorms  Icing  Turbulence  Mountain Waves  Volcanic Ashes






- Airport Elevation : 39 ft
- IATA code : ANR


EBAW - Anvers / Antwerpen Deurne

CURRENT METAR :
  • 200250Z AUTO 20013KT 9999 -SHRA SCT032/// OVC036/// 07/04 Q1001

EXPIRED METARs :
  • 200220Z AUTO 20014KT 9999 -SHRA OVC029/// 07/04 Q1002
  • 200150Z AUTO 21014KT 180V240 9999 // OVC018/// 07/04 Q1002
  • 200120Z AUTO 20014KT 9999 // FEW011/// SCT023/// BKN036/// 07/04 Q1002
  • 200050Z AUTO 20016G26KT 170V230 9999 // FEW018/// OVC029/// 07/04 Q1002
  • 200020Z AUTO 20014G25KT 9999 // OVC035/// 07/04 Q1003

TAF TAF EBAW
Valid from the 20 at 03:00 until the 20 at 12:00 UTC


200200Z 2003/2012 20015G25KT 9999 FEW012 SCT035



MET'MAP, your aeronautical weather chart ! - Copyright ORBIFLY December 2007 - Disclaimer

ORBIFLY MET'MAP TEAM :

Programming & Development : Alexandra Zaïnal
Concept & original design : Baudouin d'Aumeries
Assistance for programming : Marc-Olivier Méhu
Technical & hardware support : Manuel Goepfert

Contact : metmap@orbifly.com




SOURCES & CREDITS :

   NOAA